Time;durP1;ratioP1;P1;durP2;ratioP2;P2;SDS_P1;SDS_P2;PMS_P1;PMS_P2;Temp;Humidity;BMP_temperature;BMP_pressure;BME280_temperature;BME280_humidity;BME280_pressure;Samples;Min_cycle;Max_cycle;Signal;HPM_P1;HPM_P2
2022/04/07 00:01:27;;;;;;;0.10;0.10;;;;;;;;;;4983294;28;20062;-81
2022/04/07 00:03:53;;;;;;;0.10;0.10;;;;;;;;;;4982035;28;20797;-81
2022/04/07 00:06:19;;;;;;;0.00;0.00;;;;;;;;;;4981040;28;20042;-81
2022/04/07 00:08:46;;;;;;;0.10;0.10;;;;;;;;;;4983074;28;20325;-78
2022/04/07 00:11:12;;;;;;;0.10;0.10;;;;;;;;;;4981620;28;20050;-78
2022/04/07 00:13:38;;;;;;;0.10;0.10;;;;;;;;;;4971555;28;20033;-78
2022/04/07 00:16:04;;;;;;;0.10;0.10;;;;;;;;;;4984365;28;20149;-78
2022/04/07 00:18:30;;;;;;;0.10;0.10;;;;;;;;;;4980971;28;20034;-78
2022/04/07 00:20:56;;;;;;;0.10;0.10;;;;;;;;;;4980976;28;20092;-78
2022/04/07 00:23:23;;;;;;;0.17;0.17;;;;;;;;;;4980531;28;20105;-78
2022/04/07 00:25:49;;;;;;;0.03;0.03;;;;;;;;;;4981459;28;20043;-78
2022/04/07 00:28:16;;;;;;;0.00;0.00;;;;;;;;;;4983531;28;20030;-79
2022/04/07 00:30:43;;;;;;;0.20;0.20;;;;;;;;;;4982765;28;20552;-77
2022/04/07 00:33:09;;;;;;;0.03;0.03;;;;;;;;;;4981647;28;20453;-77
2022/04/07 00:35:35;;;;;;;0.05;0.05;;;;;;;;;;4972708;28;20137;-78
2022/04/07 00:38:01;;;;;;;0.00;0.00;;;;;;;;;;4980706;28;20034;-78
2022/04/07 00:40:28;;;;;;;0.10;0.10;;;;;;;;;;4982161;28;20042;-79
2022/04/07 00:42:54;;;;;;;5.07;1.38;;;;;;;;;;4980463;28;20055;-80
2022/04/07 00:45:21;;;;;;;0.27;0.27;;;;;;;;;;4980157;28;20121;-79
2022/04/07 00:47:48;;;;;;;0.03;0.03;;;;;;;;;;4980348;28;20038;-79
2022/04/07 00:50:14;;;;;;;0.10;0.10;;;;;;;;;;4981915;28;20029;-79
2022/04/07 00:52:41;;;;;;;;;;;;;;;;;;4991150;28;20808;-78
2022/04/07 00:55:07;;;;;;;0.10;0.10;;;;;;;;;;4984951;28;19914;-78
2022/04/07 00:57:34;;;;;;;0.10;0.10;;;;;;;;;;4980322;28;20700;-78
2022/04/07 01:00:00;;;;;;;;;;;;;;;;;;4980589;28;20411;-78
2022/04/07 01:02:26;;;;;;;0.08;0.08;;;;;;;;;;4980381;28;19925;-78
2022/04/07 01:04:52;;;;;;;0.10;0.10;;;;;;;;;;4980636;28;20039;-78
2022/04/07 01:07:18;;;;;;;0.07;0.07;;;;;;;;;;5015131;28;20076;-84
2022/04/07 01:09:44;;;;;;;0.10;0.10;;;;;;;;;;4983566;28;20038;-78
2022/04/07 01:12:11;;;;;;;0.10;0.10;;;;;;;;;;4980268;28;20049;-79
2022/04/07 01:14:50;;;;;;;0.10;0.10;;;;;;;;;;4980423;28;20034;-78
2022/04/07 01:17:19;;;;;;;0.00;0.00;;;;;;;;;;4980727;28;20040;-79
2022/04/07 01:19:45;;;;;;;0.52;0.32;;;;;;;;;;4982787;28;20077;-78
2022/04/07 01:22:11;;;;;;;0.20;0.20;;;;;;;;;;4981932;28;20030;-78
2022/04/07 01:24:38;;;;;;;0.00;0.00;;;;;;;;;;4982034;28;20168;-79
2022/04/07 01:27:04;;;;;;;0.33;0.33;;;;;;;;;;4980755;28;20018;-78
2022/04/07 01:29:30;;;;;;;0.00;0.00;;;;;;;;;;4976059;28;20368;-78
2022/04/07 01:31:57;;;;;;;0.10;0.10;;;;;;;;;;4980773;28;20145;-79
2022/04/07 01:34:24;;;;;;;0.00;0.00;;;;;;;;;;4982415;28;20497;-78
2022/04/07 01:36:51;;;;;;;0.10;0.10;;;;;;;;;;4981444;28;20030;-78
2022/04/07 01:39:21;;;;;;;0.10;0.10;;;;;;;;;;4979769;28;20029;-78
2022/04/07 01:41:48;;;;;;;0.10;0.10;;;;;;;;;;4980560;28;20034;-78
2022/04/07 01:44:16;;;;;;;0.10;0.10;;;;;;;;;;4976405;28;20065;-78
2022/04/07 01:46:42;;;;;;;0.10;0.10;;;;;;;;;;4982229;28;20034;-77
2022/04/07 01:49:08;;;;;;;0.47;0.47;;;;;;;;;;4983519;28;20057;-78
2022/04/07 01:51:36;;;;;;;0.13;0.13;;;;;;;;;;4982302;28;20038;-78
2022/04/07 01:54:02;;;;;;;0.98;0.43;;;;;;;;;;4980289;28;20050;-78
2022/04/07 01:56:30;;;;;;;0.23;0.23;;;;;;;;;;4980396;28;20030;-78
2022/04/07 01:58:56;;;;;;;0.00;0.00;;;;;;;;;;4982116;28;20911;-78
2022/04/07 02:01:22;;;;;;;0.20;0.20;;;;;;;;;;4982386;28;20038;-78
2022/04/07 02:03:48;;;;;;;0.10;0.10;;;;;;;;;;4981775;28;20042;-78
2022/04/07 02:06:16;;;;;;;0.10;0.10;;;;;;;;;;4980059;28;20037;-78
2022/04/07 02:08:42;;;;;;;0.10;0.10;;;;;;;;;;4980110;28;20676;-78
2022/04/07 02:11:10;;;;;;;0.10;0.10;;;;;;;;;;4980272;28;20054;-79
2022/04/07 02:13:38;;;;;;;0.10;0.10;;;;;;;;;;4980760;28;20066;-78
2022/04/07 02:16:05;;;;;;;0.08;0.08;;;;;;;;;;4983120;28;20521;-78
2022/04/07 02:18:31;;;;;;;;;;;;;;;;;;4980341;28;20050;-79
2022/04/07 02:20:57;;;;;;;0.10;0.10;;;;;;;;;;4980000;28;19913;-78
2022/04/07 02:23:23;;;;;;;0.00;0.00;;;;;;;;;;4983748;28;20569;-78
2022/04/07 02:25:49;;;;;;;0.00;0.00;;;;;;;;;;5000459;28;20026;-79
2022/04/07 02:28:15;;;;;;;0.00;0.00;;;;;;;;;;4985987;28;20038;-79
2022/04/07 02:30:41;;;;;;;0.20;0.20;;;;;;;;;;4983878;28;20041;-79
2022/04/07 02:33:07;;;;;;;0.10;0.10;;;;;;;;;;4983131;28;20125;-80
2022/04/07 02:35:33;;;;;;;0.10;0.10;;;;;;;;;;4982951;28;20034;-79
2022/04/07 02:37:59;;;;;;;0.10;0.10;;;;;;;;;;4983460;28;20446;-79
2022/04/07 02:40:26;;;;;;;1.45;0.63;;;;;;;;;;4983402;28;20066;-80
2022/04/07 02:42:52;;;;;;;0.40;0.40;;;;;;;;;;4984262;28;20050;-79
2022/04/07 02:45:18;;;;;;;0.00;0.00;;;;;;;;;;4984787;28;20042;-77
2022/04/07 02:47:44;;;;;;;0.30;0.30;;;;;;;;;;4978793;28;20038;-77
2022/04/07 02:50:10;;;;;;;0.10;0.10;;;;;;;;;;4982621;28;20125;-77
2022/04/07 02:52:36;;;;;;;0.10;0.10;;;;;;;;;;4983720;28;20925;-78
2022/04/07 02:55:03;;;;;;;0.10;0.10;;;;;;;;;;4983932;28;20022;-78
2022/04/07 02:57:31;;;;;;;0.10;0.10;;;;;;;;;;5017386;28;20343;-77
2022/04/07 02:59:58;;;;;;;0.35;0.35;;;;;;;;;;4987922;28;20041;-78
2022/04/07 03:02:24;;;;;;;0.00;0.00;;;;;;;;;;4982148;28;20096;-78
2022/04/07 03:04:50;;;;;;;0.17;0.17;;;;;;;;;;4973608;28;20030;-77
2022/04/07 03:07:16;;;;;;;0.20;0.20;;;;;;;;;;4985429;28;20096;-82
2022/04/07 03:09:43;;;;;;;0.10;0.10;;;;;;;;;;4983818;28;20092;-83
2022/04/07 03:12:09;;;;;;;0.10;0.10;;;;;;;;;;4982332;28;20141;-83
2022/04/07 03:14:35;;;;;;;0.00;0.00;;;;;;;;;;4982712;28;20026;-83
2022/04/07 03:17:02;;;;;;;0.10;0.10;;;;;;;;;;4982571;28;20425;-83
2022/04/07 03:19:28;;;;;;;0.10;0.10;;;;;;;;;;4982171;28;20104;-82
2022/04/07 03:21:55;;;;;;;0.03;0.03;;;;;;;;;;4983559;28;20042;-83
2022/04/07 03:24:21;;;;;;;;;;;;;;;;;;4982204;28;20860;-83
2022/04/07 03:26:47;;;;;;;0.85;0.85;;;;;;;;;;4982046;28;19914;-84
2022/04/07 03:29:13;;;;;;;0.10;0.10;;;;;;;;;;4982094;28;20034;-83
2022/04/07 03:31:39;;;;;;;0.38;0.38;;;;;;;;;;4977299;28;20137;-83
2022/04/07 03:34:05;;;;;;;0.05;0.05;;;;;;;;;;4984523;28;20042;-83
2022/04/07 03:36:31;;;;;;;0.20;0.20;;;;;;;;;;4981787;28;20045;-81
2022/04/07 03:38:57;;;;;;;0.17;0.17;;;;;;;;;;4983501;28;20037;-83
2022/04/07 03:41:23;;;;;;;0.10;0.10;;;;;;;;;;4981860;28;20034;-85
2022/04/07 03:43:49;;;;;;;0.30;0.30;;;;;;;;;;5011583;28;20054;-86
2022/04/07 03:46:16;;;;;;;0.10;0.10;;;;;;;;;;4976155;28;20101;-83
2022/04/07 03:48:42;;;;;;;0.38;0.38;;;;;;;;;;4982463;28;20038;-85
2022/04/07 03:51:09;;;;;;;0.10;0.10;;;;;;;;;;4981518;28;20041;-85
2022/04/07 03:53:35;;;;;;;0.10;0.10;;;;;;;;;;4981404;28;20031;-85
2022/04/07 03:56:03;;;;;;;0.17;0.17;;;;;;;;;;4981390;28;20053;-85
2022/04/07 03:58:30;;;;;;;0.10;0.10;;;;;;;;;;4983126;28;20436;-85
2022/04/07 04:00:56;;;;;;;0.10;0.10;;;;;;;;;;4983593;28;20049;-85
2022/04/07 04:03:23;;;;;;;0.20;0.20;;;;;;;;;;4981411;28;20035;-85
2022/04/07 04:05:49;;;;;;;0.10;0.10;;;;;;;;;;4981710;28;20292;-85
2022/04/07 04:08:15;;;;;;;0.20;0.20;;;;;;;;;;4981773;28;20113;-79
2022/04/07 04:10:41;;;;;;;0.00;0.00;;;;;;;;;;4981324;28;20089;-79
2022/04/07 04:13:07;;;;;;;0.20;0.20;;;;;;;;;;4999197;28;20037;-79
2022/04/07 04:15:33;;;;;;;0.20;0.20;;;;;;;;;;4982505;28;20034;-80
2022/04/07 04:17:59;;;;;;;0.82;0.82;;;;;;;;;;4981132;28;20034;-80
2022/04/07 04:20:25;;;;;;;0.17;0.17;;;;;;;;;;4982374;28;20038;-82
2022/04/07 04:22:51;;;;;;;0.50;0.50;;;;;;;;;;4981893;28;20027;-83
2022/04/07 04:25:17;;;;;;;0.20;0.20;;;;;;;;;;4984106;28;20038;-84
2022/04/07 04:27:43;;;;;;;0.10;0.10;;;;;;;;;;4983265;28;20027;-84
2022/04/07 04:30:10;;;;;;;0.10;0.10;;;;;;;;;;4983497;28;20117;-82
2022/04/07 04:32:36;;;;;;;0.00;0.00;;;;;;;;;;4984531;28;20109;-82
2022/04/07 04:35:03;;;;;;;4.20;1.10;;;;;;;;;;4982857;28;20045;-81
2022/04/07 04:37:29;;;;;;;0.10;0.10;;;;;;;;;;4984286;28;20047;-82
2022/04/07 04:39:55;;;;;;;0.52;0.52;;;;;;;;;;4968484;28;20086;-82
2022/04/07 04:42:21;;;;;;;0.25;0.25;;;;;;;;;;4980821;28;20093;-84
2022/04/07 04:44:47;;;;;;;1.23;0.98;;;;;;;;;;4982025;28;20042;-85
2022/04/07 04:47:14;;;;;;;0.10;0.10;;;;;;;;;;4982481;28;20054;-85
2022/04/07 04:49:41;;;;;;;0.47;0.47;;;;;;;;;;4966694;28;20410;-84
2022/04/07 04:52:07;;;;;;;0.38;0.38;;;;;;;;;;4984566;28;20050;-84
2022/04/07 04:54:33;;;;;;;0.13;0.13;;;;;;;;;;4981862;28;20042;-84
2022/04/07 04:56:59;;;;;;;1.90;1.43;;;;;;;;;;4981958;28;20038;-87
2022/04/07 04:59:25;;;;;;;2.33;1.25;;;;;;;;;;4982124;28;20030;-82
2022/04/07 05:01:51;;;;;;;0.47;0.47;;;;;;;;;;4979372;28;20043;-83
2022/04/07 05:04:17;;;;;;;1.33;1.27;;;;;;;;;;4980687;28;20105;-85
2022/04/07 05:06:43;;;;;;;4.50;0.85;;;;;;;;;;4981808;28;20141;-84
2022/04/07 05:09:09;;;;;;;0.10;0.10;;;;;;;;;;4982236;28;20423;-82
2022/04/07 05:11:36;;;;;;;0.63;0.63;;;;;;;;;;4983349;28;20049;-82
2022/04/07 05:14:02;;;;;;;0.20;0.15;;;;;;;;;;5012795;28;20022;-81
2022/04/07 05:16:28;;;;;;;0.10;0.10;;;;;;;;;;4983235;28;20089;-82
2022/04/07 05:18:54;;;;;;;0.97;0.90;;;;;;;;;;4985126;28;20569;-82
2022/04/07 05:21:20;;;;;;;0.67;0.57;;;;;;;;;;4980983;28;20038;-82
2022/04/07 05:23:47;;;;;;;3.13;0.83;;;;;;;;;;5013920;28;20058;-81
2022/04/07 05:26:13;;;;;;;0.20;0.20;;;;;;;;;;4981360;28;20026;-82
2022/04/07 05:28:42;;;;;;;0.57;0.57;;;;;;;;;;4981538;28;20494;-82
2022/04/07 05:31:09;;;;;;;0.20;0.20;;;;;;;;;;4994993;28;20050;-82
2022/04/07 05:33:35;;;;;;;0.38;0.38;;;;;;;;;;4980894;28;20521;-82
2022/04/07 05:36:01;;;;;;;1.38;1.27;;;;;;;;;;4982435;28;20422;-81
2022/04/07 05:38:27;;;;;;;0.80;0.52;;;;;;;;;;4981203;28;20073;-82
2022/04/07 05:40:53;;;;;;;0.57;0.30;;;;;;;;;;4981142;28;20070;-81
2022/04/07 05:43:19;;;;;;;0.20;0.20;;;;;;;;;;4983024;28;20293;-81
2022/04/07 05:45:45;;;;;;;3.60;1.33;;;;;;;;;;4980404;28;20034;-81
2022/04/07 05:48:14;;;;;;;0.23;0.23;;;;;;;;;;4979235;28;20033;-81
2022/04/07 05:50:41;;;;;;;2.42;2.15;;;;;;;;;;4980828;28;20308;-81
2022/04/07 05:53:07;;;;;;;0.40;0.40;;;;;;;;;;4981115;28;20421;-82
2022/04/07 05:55:34;;;;;;;7.70;2.28;;;;;;;;;;4981839;28;20038;-82
2022/04/07 05:58:07;;;;;;;0.68;0.57;;;;;;;;;;4984588;28;20073;-82
2022/04/07 06:00:33;;;;;;;0.73;0.57;;;;;;;;;;4984737;28;20027;-82
2022/04/07 06:02:59;;;;;;;1.08;0.68;;;;;;;;;;4984313;28;20740;-82
2022/04/07 06:05:25;;;;;;;2.30;2.13;;;;;;;;;;4984690;28;20064;-81
2022/04/07 06:07:57;;;;;;;0.20;0.20;;;;;;;;;;4985278;28;20038;-82
2022/04/07 06:10:23;;;;;;;0.28;0.28;;;;;;;;;;4987017;28;20793;-81
2022/04/07 06:12:49;;;;;;;0.15;0.15;;;;;;;;;;4985649;28;20038;-82
2022/04/07 06:15:15;;;;;;;0.90;0.90;;;;;;;;;;4986448;28;20038;-81
2022/04/07 06:17:44;;;;;;;1.83;1.40;;;;;;;;;;4984665;28;20038;-82
2022/04/07 06:20:11;;;;;;;0.50;0.50;;;;;;;;;;4984855;28;20310;-82
2022/04/07 06:22:37;;;;;;;;;;;;;;;;;;4985808;28;20483;-81
2022/04/07 06:25:04;;;;;;;0.20;0.20;;;;;;;;;;4987040;28;19918;-82
2022/04/07 06:27:33;;;;;;;0.43;0.43;;;;;;;;;;4984090;28;20030;-81
2022/04/07 06:29:59;;;;;;;0.20;0.20;;;;;;;;;;4984293;28;20045;-82
2022/04/07 06:32:25;;;;;;;5.28;1.60;;;;;;;;;;4984297;28;20664;-81
2022/04/07 06:34:51;;;;;;;0.30;0.30;;;;;;;;;;4982944;28;20031;-82
2022/04/07 06:37:17;;;;;;;0.33;0.33;;;;;;;;;;4983924;28;20556;-82
2022/04/07 06:39:43;;;;;;;0.28;0.20;;;;;;;;;;4985043;28;20034;-82
2022/04/07 06:42:09;;;;;;;0.20;0.20;;;;;;;;;;4983867;28;20038;-81
2022/04/07 06:44:35;;;;;;;0.10;0.10;;;;;;;;;;4983447;28;20038;-82
2022/04/07 06:47:01;;;;;;;0.22;0.22;;;;;;;;;;4985487;28;20104;-81
2022/04/07 06:49:27;;;;;;;0.20;0.20;;;;;;;;;;4986168;28;20025;-81
2022/04/07 06:51:53;;;;;;;0.10;0.10;;;;;;;;;;4985690;28;20041;-82
2022/04/07 06:54:20;;;;;;;4.07;1.67;;;;;;;;;;5014912;28;20701;-81
2022/04/07 06:56:46;;;;;;;0.22;0.22;;;;;;;;;;4983529;28;20521;-82
2022/04/07 06:59:12;;;;;;;4.10;1.05;;;;;;;;;;4985292;28;20959;-82
2022/04/07 07:01:39;;;;;;;0.93;0.83;;;;;;;;;;4984307;28;20042;-82
2022/04/07 07:04:05;;;;;;;1.40;1.08;;;;;;;;;;4986422;28;20494;-82
2022/04/07 07:06:31;;;;;;;0.35;0.35;;;;;;;;;;4977889;28;20034;-81
2022/04/07 07:08:57;;;;;;;1.10;1.00;;;;;;;;;;4977409;28;20113;-81
2022/04/07 07:11:23;;;;;;;0.37;0.37;;;;;;;;;;5013584;28;20282;-82
2022/04/07 07:13:49;;;;;;;0.10;0.10;;;;;;;;;;4983749;28;20027;-81
2022/04/07 07:16:15;;;;;;;0.10;0.10;;;;;;;;;;4986031;28;20058;-82
2022/04/07 07:18:42;;;;;;;0.17;0.17;;;;;;;;;;4983699;28;20053;-81
2022/04/07 07:21:08;;;;;;;;;;;;;;;;;;4986137;28;20515;-81
2022/04/07 07:23:35;;;;;;;0.30;0.30;;;;;;;;;;4982906;28;19914;-81
2022/04/07 07:26:01;;;;;;;0.20;0.20;;;;;;;;;;4986118;28;20026;-81
2022/04/07 07:28:27;;;;;;;3.67;1.40;;;;;;;;;;4985589;28;20039;-82
2022/04/07 07:30:53;;;;;;;0.30;0.30;;;;;;;;;;4984073;28;20134;-81
2022/04/07 07:33:19;;;;;;;0.70;0.68;;;;;;;;;;4982819;28;20068;-82
2022/04/07 07:35:46;;;;;;;0.35;0.20;;;;;;;;;;4983226;28;20061;-81
2022/04/07 07:38:11;;;;;;;;;;;;;;;;;;4983550;28;20018;-81
2022/04/07 07:40:38;;;;;;;0.00;0.00;;;;;;;;;;4983699;28;19972;-81
2022/04/07 07:43:04;;;;;;;0.45;0.45;;;;;;;;;;4985800;28;20046;-81
2022/04/07 07:45:34;;;;;;;0.10;0.10;;;;;;;;;;4983006;28;20034;-82
2022/04/07 07:48:00;;;;;;;0.20;0.20;;;;;;;;;;4982810;28;20421;-82
2022/04/07 07:50:26;;;;;;;0.00;0.00;;;;;;;;;;4984519;28;20038;-81
2022/04/07 07:52:52;;;;;;;0.10;0.10;;;;;;;;;;4982616;28;20062;-82
2022/04/07 07:55:19;;;;;;;0.60;0.60;;;;;;;;;;4985440;28;20121;-82
2022/04/07 07:57:45;;;;;;;0.32;0.32;;;;;;;;;;4983998;28;20037;-82
2022/04/07 08:00:14;;;;;;;1.80;0.45;;;;;;;;;;4982827;28;20041;-82
2022/04/07 08:02:40;;;;;;;0.10;0.10;;;;;;;;;;4982306;28;20902;-82
2022/04/07 08:05:07;;;;;;;0.10;0.10;;;;;;;;;;4982462;28;20069;-81
2022/04/07 08:07:33;;;;;;;;;;;;;;;;;;4984324;28;20030;-84
2022/04/07 08:09:59;;;;;;;2.42;1.45;;;;;;;;;;4984177;28;19909;-84
2022/04/07 08:12:25;;;;;;;0.17;0.17;;;;;;;;;;4983926;28;20085;-84
2022/04/07 08:14:52;;;;;;;0.10;0.10;;;;;;;;;;4982773;28;20129;-84
2022/04/07 08:17:18;;;;;;;0.20;0.20;;;;;;;;;;4983965;28;20113;-85
2022/04/07 08:19:44;;;;;;;1.07;0.57;;;;;;;;;;4982507;28;20030;-84
2022/04/07 08:22:10;;;;;;;0.28;0.28;;;;;;;;;;4984174;28;21370;-84
2022/04/07 08:24:36;;;;;;;4.57;1.73;;;;;;;;;;4982639;28;20564;-84
2022/04/07 08:27:03;;;;;;;0.13;0.13;;;;;;;;;;4982340;28;20103;-85
2022/04/07 08:29:29;;;;;;;0.10;0.10;;;;;;;;;;4982293;28;20034;-84
2022/04/07 08:31:55;;;;;;;4.03;1.27;;;;;;;;;;4984259;28;20057;-85
2022/04/07 08:34:21;;;;;;;0.27;0.27;;;;;;;;;;4984790;28;20470;-84
2022/04/07 08:36:47;;;;;;;0.20;0.20;;;;;;;;;;4983464;28;20063;-85
2022/04/07 08:39:14;;;;;;;0.10;0.10;;;;;;;;;;4982388;28;20053;-84
2022/04/07 08:41:42;;;;;;;0.15;0.15;;;;;;;;;;4983326;28;20040;-84
2022/04/07 08:44:08;;;;;;;0.10;0.10;;;;;;;;;;4981611;28;20045;-84
2022/04/07 08:46:34;;;;;;;1.02;0.65;;;;;;;;;;4983005;28;20041;-84
2022/04/07 08:49:02;;;;;;;0.10;0.10;;;;;;;;;;4982746;28;20038;-84
2022/04/07 08:51:29;;;;;;;0.30;0.30;;;;;;;;;;4981750;28;20046;-85
2022/04/07 08:53:55;;;;;;;0.10;0.10;;;;;;;;;;4981908;28;20037;-85
2022/04/07 08:56:23;;;;;;;0.40;0.40;;;;;;;;;;4981922;28;20034;-85
2022/04/07 08:58:49;;;;;;;0.32;0.32;;;;;;;;;;4981946;28;20282;-84
2022/04/07 09:01:15;;;;;;;4.68;0.55;;;;;;;;;;4984687;28;20871;-84
2022/04/07 09:03:43;;;;;;;0.10;0.10;;;;;;;;;;4982393;28;20502;-84
2022/04/07 09:06:10;;;;;;;5.78;1.30;;;;;;;;;;4983686;28;20645;-84
2022/04/07 09:08:41;;;;;;;0.17;0.17;;;;;;;;;;4982048;28;20033;-81
2022/04/07 09:11:07;;;;;;;0.30;0.30;;;;;;;;;;4978872;28;20118;-81
2022/04/07 09:13:35;;;;;;;0.85;0.85;;;;;;;;;;4982173;28;20038;-81
2022/04/07 09:16:05;;;;;;;0.65;0.65;;;;;;;;;;4984060;28;20054;-81
2022/04/07 09:18:35;;;;;;;0.30;0.30;;;;;;;;;;4981848;28;20033;-81
2022/04/07 09:21:01;;;;;;;0.10;0.10;;;;;;;;;;4981796;28;20050;-81
2022/04/07 09:23:30;;;;;;;0.10;0.10;;;;;;;;;;4981792;28;20057;-82
2022/04/07 09:25:56;;;;;;;0.43;0.38;;;;;;;;;;4981690;28;20039;-82
2022/04/07 09:28:26;;;;;;;0.30;0.30;;;;;;;;;;4983768;28;20061;-81
2022/04/07 09:30:52;;;;;;;0.20;0.20;;;;;;;;;;4983137;28;20070;-82
2022/04/07 09:33:22;;;;;;;0.30;0.30;;;;;;;;;;4983991;28;20038;-81
2022/04/07 09:35:58;;;;;;;0.22;0.22;;;;;;;;;;4985929;28;20292;-81
2022/04/07 09:38:25;;;;;;;0.53;0.53;;;;;;;;;;4985623;28;20671;-81
2022/04/07 09:40:51;;;;;;;;;;;;;;;;;;4985715;28;20070;-81
2022/04/07 09:43:17;;;;;;;0.30;0.30;;;;;;;;;;4987829;28;19953;-81
2022/04/07 09:45:46;;;;;;;0.40;0.40;;;;;;;;;;4985807;28;20873;-81
2022/04/07 09:48:18;;;;;;;0.50;0.50;;;;;;;;;;4985213;28;20284;-81
2022/04/07 09:51:02;;;;;;;0.20;0.20;;;;;;;;;;4985473;28;20133;-81
2022/04/07 09:53:32;;;;;;;0.22;0.22;;;;;;;;;;4984875;28;20494;-81
2022/04/07 09:55:58;;;;;;;0.10;0.10;;;;;;;;;;4985078;28;20019;-82
2022/04/07 09:58:24;;;;;;;0.10;0.10;;;;;;;;;;4986967;28;20484;-81
2022/04/07 10:00:50;;;;;;;0.00;0.00;;;;;;;;;;4986355;28;20041;-81
2022/04/07 10:03:16;;;;;;;0.47;0.47;;;;;;;;;;5015924;28;20113;-81
2022/04/07 10:05:58;;;;;;;0.47;0.45;;;;;;;;;;4984992;28;20069;-89
2022/04/07 10:08:25;;;;;;;0.10;0.10;;;;;;;;;;4986067;28;20426;-84
2022/04/07 10:10:51;;;;;;;;;;;;;;;;;;4985325;28;20066;-83
2022/04/07 10:13:17;;;;;;;0.10;0.10;;;;;;;;;;4987412;28;19960;-84
2022/04/07 10:15:43;;;;;;;0.10;0.10;;;;;;;;;;4985257;28;20117;-84
2022/04/07 10:18:15;;;;;;;0.30;0.30;;;;;;;;;;4984815;28;20035;-83
2022/04/07 10:20:44;;;;;;;0.10;0.10;;;;;;;;;;4986563;28;20030;-84
2022/04/07 10:23:13;;;;;;;0.82;0.82;;;;;;;;;;4986006;28;20026;-83
2022/04/07 10:25:43;;;;;;;0.10;0.10;;;;;;;;;;4984854;28;20490;-83
2022/04/07 10:28:10;;;;;;;0.10;0.10;;;;;;;;;;4985872;28;20038;-83
2022/04/07 10:30:47;;;;;;;0.10;0.10;;;;;;;;;;4984035;28;20030;-84
2022/04/07 10:33:31;;;;;;;0.20;0.20;;;;;;;;;;4983948;28;20073;-84
2022/04/07 10:35:57;;;;;;;4.28;1.55;;;;;;;;;;4987268;28;20038;-86
2022/04/07 10:38:40;;;;;;;0.10;0.10;;;;;;;;;;4989437;28;20045;-84
2022/04/07 10:41:06;;;;;;;1.13;1.08;;;;;;;;;;4986320;28;20273;-85
2022/04/07 10:43:37;;;;;;;0.20;0.20;;;;;;;;;;4992472;28;20798;-84
2022/04/07 10:46:06;;;;;;;0.57;0.55;;;;;;;;;;4992592;28;20042;-84
2022/04/07 10:48:45;;;;;;;0.47;0.47;;;;;;;;;;4991690;28;20026;-85
2022/04/07 10:51:12;;;;;;;2.00;0.85;;;;;;;;;;4984601;28;20038;-84
2022/04/07 10:53:38;;;;;;;;;;;;;;;;;;4983942;28;20042;-85
2022/04/07 10:56:07;;;;;;;0.90;0.85;;;;;;;;;;4988336;28;19913;-85
2022/04/07 10:58:43;;;;;;;7.53;1.35;;;;;;;;;;4984815;28;20107;-85
2022/04/07 11:01:27;;;;;;;0.38;0.38;;;;;;;;;;4986723;28;20093;-84
2022/04/07 11:04:12;;;;;;;0.10;0.10;;;;;;;;;;4986708;28;20027;-84
2022/04/07 11:07:13;;;;;;;0.32;0.32;;;;;;;;;;4984110;28;20042;-89
2022/04/07 11:09:47;;;;;;;0.10;0.10;;;;;;;;;;4984915;28;20027;-84
2022/04/07 11:12:39;;;;;;;0.13;0.13;;;;;;;;;;4983266;28;20050;-85
2022/04/07 11:15:11;;;;;;;0.20;0.20;;;;;;;;;;4981006;28;20055;-84
2022/04/07 11:17:38;;;;;;;0.28;0.22;;;;;;;;;;4983040;28;20045;-84
2022/04/07 11:20:04;;;;;;;;;;;;;;;;;;4986001;28;20037;-84
2022/04/07 11:22:49;;;;;;;0.10;0.10;;;;;;;;;;4984924;28;19909;-84
2022/04/07 11:25:15;;;;;;;0.22;0.22;;;;;;;;;;4982473;28;20038;-84
2022/04/07 11:27:45;;;;;;;0.00;0.00;;;;;;;;;;4985139;28;20022;-85
2022/04/07 11:30:13;;;;;;;1.67;0.65;;;;;;;;;;4982940;28;20038;-84
2022/04/07 11:32:41;;;;;;;0.20;0.20;;;;;;;;;;4983047;28;20026;-84
2022/04/07 11:35:14;;;;;;;11.30;1.27;;;;;;;;;;4984068;28;20038;-84
2022/04/07 11:37:43;;;;;;;0.25;0.25;;;;;;;;;;4984727;28;20038;-85
2022/04/07 11:40:10;;;;;;;0.28;0.28;;;;;;;;;;4986224;28;20031;-84
2022/04/07 11:42:36;;;;;;;0.20;0.20;;;;;;;;;;4983936;28;20696;-83
2022/04/07 11:45:03;;;;;;;0.65;0.55;;;;;;;;;;4982548;28;20588;-84
2022/04/07 11:47:39;;;;;;;0.00;0.00;;;;;;;;;;4983190;28;20053;-84
2022/04/07 11:50:09;;;;;;;0.10;0.10;;;;;;;;;;4982958;28;20533;-83
2022/04/07 11:52:36;;;;;;;0.10;0.10;;;;;;;;;;4984039;28;20329;-84
2022/04/07 11:55:02;;;;;;;;;;;;;;;;;;4985467;28;20030;-84
2022/04/07 11:57:29;;;;;;;3.72;0.63;;;;;;;;;;5013512;28;19910;-85
2022/04/07 12:00:03;;;;;;;0.20;0.20;;;;;;;;;;4982596;28;20046;-86
2022/04/07 12:02:29;;;;;;;1.52;1.25;;;;;;;;;;4983387;28;20022;-85
2022/04/07 12:05:03;;;;;;;1.13;1.07;;;;;;;;;;4983409;28;20085;-85
2022/04/07 12:07:30;;;;;;;0.10;0.10;;;;;;;;;;4985416;28;20042;-83
2022/04/07 12:09:56;;;;;;;8.45;3.05;;;;;;;;;;4985936;28;20435;-81
2022/04/07 12:12:23;;;;;;;0.13;0.13;;;;;;;;;;4982565;28;20038;-82
2022/04/07 12:14:50;;;;;;;0.28;0.28;;;;;;;;;;4985248;28;20030;-81
2022/04/07 12:17:16;;;;;;;0.10;0.10;;;;;;;;;;4982395;28;20034;-82
2022/04/07 12:19:42;;;;;;;0.17;0.17;;;;;;;;;;4983872;28;20101;-82
2022/04/07 12:22:09;;;;;;;0.10;0.10;;;;;;;;;;4985476;28;20034;-82
2022/04/07 12:24:35;;;;;;;0.23;0.23;;;;;;;;;;4982359;28;20030;-82
2022/04/07 12:27:01;;;;;;;0.10;0.10;;;;;;;;;;4982581;28;20053;-82
2022/04/07 12:29:31;;;;;;;0.03;0.03;;;;;;;;;;4982363;28;20023;-82
2022/04/07 12:32:05;;;;;;;0.10;0.10;;;;;;;;;;4982412;28;20085;-82
2022/04/07 12:34:32;;;;;;;0.47;0.30;;;;;;;;;;4984266;28;20038;-83
2022/04/07 12:36:58;;;;;;;0.07;0.07;;;;;;;;;;4985250;28;20038;-82
2022/04/07 12:39:27;;;;;;;0.10;0.10;;;;;;;;;;4983698;28;20042;-83
2022/04/07 12:42:02;;;;;;;0.10;0.10;;;;;;;;;;5013008;28;20034;-83
2022/04/07 12:44:33;;;;;;;0.13;0.13;;;;;;;;;;4981830;28;20136;-82
2022/04/07 12:47:01;;;;;;;0.30;0.30;;;;;;;;;;4982251;28;20027;-83
2022/04/07 12:49:28;;;;;;;0.20;0.20;;;;;;;;;;4984085;28;20019;-82
2022/04/07 12:52:05;;;;;;;0.07;0.07;;;;;;;;;;4982826;28;20498;-83
2022/04/07 12:54:31;;;;;;;0.20;0.20;;;;;;;;;;4983751;28;20566;-82
2022/04/07 12:57:10;;;;;;;0.00;0.00;;;;;;;;;;4981678;28;20049;-82
2022/04/07 12:59:37;;;;;;;0.10;0.10;;;;;;;;;;4981463;28;20058;-82
2022/04/07 13:02:03;;;;;;;0.10;0.10;;;;;;;;;;4983268;28;20519;-82
2022/04/07 13:04:45;;;;;;;0.57;0.30;;;;;;;;;;4983831;28;20034;-82
2022/04/07 13:07:11;;;;;;;0.52;0.52;;;;;;;;;;4983792;28;20644;-82
2022/04/07 13:09:37;;;;;;;0.57;0.30;;;;;;;;;;4982608;28;20794;-86
2022/04/07 13:12:03;;;;;;;0.50;0.50;;;;;;;;;;4981347;28;20039;-86
2022/04/07 13:14:29;;;;;;;0.20;0.20;;;;;;;;;;4981007;28;20070;-86
2022/04/07 13:16:55;;;;;;;0.03;0.03;;;;;;;;;;4981182;28;20049;-86
2022/04/07 13:19:21;;;;;;;0.20;0.20;;;;;;;;;;4983871;28;20049;-86
2022/04/07 13:21:47;;;;;;;0.10;0.10;;;;;;;;;;4982639;28;20027;-87
2022/04/07 13:24:14;;;;;;;0.30;0.30;;;;;;;;;;4981576;28;20084;-86
2022/04/07 13:26:41;;;;;;;0.10;0.10;;;;;;;;;;4981907;28;20058;-86
2022/04/07 13:29:07;;;;;;;1.10;0.73;;;;;;;;;;4981570;28;20033;-87
2022/04/07 13:31:33;;;;;;;3.75;1.88;;;;;;;;;;4982823;28;20042;-86
2022/04/07 13:34:01;;;;;;;1.07;0.47;;;;;;;;;;4981714;28;20057;-86
2022/04/07 13:36:27;;;;;;;0.10;0.10;;;;;;;;;;4980911;28;20069;-86
2022/04/07 13:38:53;;;;;;;0.40;0.37;;;;;;;;;;4980964;28;20193;-87
2022/04/07 13:41:19;;;;;;;0.10;0.10;;;;;;;;;;4981404;28;20117;-85
2022/04/07 13:43:45;;;;;;;0.23;0.23;;;;;;;;;;4981816;28;20051;-87
2022/04/07 13:46:11;;;;;;;0.30;0.30;;;;;;;;;;4984786;28;20045;-86
2022/04/07 13:48:37;;;;;;;0.27;0.27;;;;;;;;;;4980771;28;20038;-86
2022/04/07 13:51:04;;;;;;;0.10;0.10;;;;;;;;;;4981371;28;20081;-87
2022/04/07 13:53:30;;;;;;;0.10;0.10;;;;;;;;;;4980862;28;20022;-86
2022/04/07 13:55:56;;;;;;;0.23;0.23;;;;;;;;;;4981409;28;20038;-86
2022/04/07 13:58:22;;;;;;;0.57;0.57;;;;;;;;;;4981989;28;20319;-86
2022/04/07 14:00:48;;;;;;;0.10;0.10;;;;;;;;;;4978152;28;20332;-86
2022/04/07 14:03:14;;;;;;;0.63;0.28;;;;;;;;;;4981310;28;20042;-86
2022/04/07 14:05:40;;;;;;;0.10;0.10;;;;;;;;;;4981529;28;20034;-87
2022/04/07 14:08:08;;;;;;;0.00;0.00;;;;;;;;;;4981754;28;20547;-82
2022/04/07 14:10:35;;;;;;;0.40;0.40;;;;;;;;;;4982646;28;20061;-82
2022/04/07 14:13:01;;;;;;;6.78;1.20;;;;;;;;;;4983073;28;20030;-82
2022/04/07 14:15:27;;;;;;;0.10;0.10;;;;;;;;;;4981112;28;20109;-82
2022/04/07 14:17:55;;;;;;;0.13;0.13;;;;;;;;;;4976987;28;20503;-82
2022/04/07 14:20:22;;;;;;;0.10;0.10;;;;;;;;;;4985567;28;20053;-82
2022/04/07 14:22:48;;;;;;;0.17;0.17;;;;;;;;;;5015614;28;20113;-83
2022/04/07 14:25:14;;;;;;;0.10;0.10;;;;;;;;;;4988022;28;20030;-82
2022/04/07 14:27:42;;;;;;;0.30;0.30;;;;;;;;;;4985004;28;20031;-82
2022/04/07 14:30:08;;;;;;;0.10;0.10;;;;;;;;;;4984680;28;20045;-82
2022/04/07 14:32:35;;;;;;;0.32;0.32;;;;;;;;;;4980378;28;20097;-82
2022/04/07 14:35:01;;;;;;;0.10;0.10;;;;;;;;;;4987337;28;20034;-82
2022/04/07 14:37:27;;;;;;;0.20;0.20;;;;;;;;;;4983986;28;20030;-82
2022/04/07 14:39:53;;;;;;;0.30;0.30;;;;;;;;;;4985355;28;20072;-82
2022/04/07 14:42:19;;;;;;;0.17;0.17;;;;;;;;;;4984220;28;20053;-82
2022/04/07 14:44:45;;;;;;;0.30;0.30;;;;;;;;;;4983696;28;20054;-82
2022/04/07 14:47:11;;;;;;;0.10;0.10;;;;;;;;;;4983960;28;20893;-82
2022/04/07 14:49:37;;;;;;;0.10;0.10;;;;;;;;;;4985154;28;20030;-82